JBU8385 KBTV-KCLE
Flight info
| Callsign | JBU8385 |
|---|---|
| Flight time | 1h 20m |
| Altitude | 34000 |
| Route | GONZZ THOME TRYBE4 |
| Aircraft | A20N/M-SDE2E3FGHIRWXY/LB1 |
Departure
| Time | 2026-05-05 22:27 |
|---|---|
| Airport | Patrick Leahy Burlington International Airport (KBTV) |
Arrival
| Time | 2026-05-05 23:47 |
|---|---|
| Airport | Cleveland Hopkins International Airport (KCLE) |
| Time | Latitude | Longitude | Altitude | Speed | Heading |
|---|---|---|---|---|---|
| 2026-05-05 22:05 | 44.46860 | -73.15388 | 336 ft | 0 kts | 296° |
| 2026-05-05 22:18 | 44.46856 | -73.15375 | 336 ft | 1 kts | 295° |
| 2026-05-05 22:19 | 44.46849 | -73.15356 | 336 ft | 2 kts | 295° |
| 2026-05-05 22:19 | 44.46843 | -73.15338 | 337 ft | 2 kts | 311° |
| 2026-05-05 22:19 | 44.46831 | -73.15324 | 336 ft | 2 kts | 325° |
| 2026-05-05 22:19 | 44.46818 | -73.15313 | 336 ft | 2 kts | 340° |
| 2026-05-05 22:20 | 44.46807 | -73.15309 | 336 ft | 0 kts | 350° |
| 2026-05-05 22:20 | 44.46800 | -73.15308 | 336 ft | 0 kts | 353° |
| 2026-05-05 22:22 | 44.46802 | -73.15308 | 336 ft | 1 kts | 352° |
| 2026-05-05 22:23 | 44.46836 | -73.15314 | 336 ft | 9 kts | 353° |
| 2026-05-05 22:23 | 44.46903 | -73.15326 | 336 ft | 10 kts | 352° |
| 2026-05-05 22:23 | 44.46983 | -73.15343 | 336 ft | 12 kts | 351° |
| 2026-05-05 22:23 | 44.47073 | -73.15363 | 335 ft | 14 kts | 350° |
| 2026-05-05 22:24 | 44.47152 | -73.15402 | 333 ft | 12 kts | 315° |
| 2026-05-05 22:24 | 44.47213 | -73.15501 | 331 ft | 14 kts | 311° |
| 2026-05-05 22:24 | 44.47284 | -73.15617 | 328 ft | 16 kts | 309° |
| 2026-05-05 22:24 | 44.47366 | -73.15749 | 325 ft | 18 kts | 310° |
| 2026-05-05 22:25 | 44.47451 | -73.15894 | 322 ft | 20 kts | 313° |
| 2026-05-05 22:25 | 44.47544 | -73.16036 | 318 ft | 20 kts | 309° |
| 2026-05-05 22:25 | 44.47639 | -73.16187 | 315 ft | 21 kts | 311° |
| 2026-05-05 22:25 | 44.47736 | -73.16343 | 313 ft | 21 kts | 312° |
| 2026-05-05 22:26 | 44.47835 | -73.16504 | 310 ft | 20 kts | 311° |
| 2026-05-05 22:26 | 44.47927 | -73.16488 | 306 ft | 15 kts | 41° |
| 2026-05-05 22:26 | 44.47922 | -73.16352 | 302 ft | 15 kts | 130° |
| 2026-05-05 22:26 | 44.47834 | -73.16212 | 305 ft | 39 kts | 132° |
| 2026-05-05 22:27 | 44.47496 | -73.15662 | 324 ft | 109 kts | 132° |
| 2026-05-05 22:27 | 44.46870 | -73.14645 | 384 ft | 159 kts | 132° |
| 2026-05-05 22:27 | 44.46158 | -73.13457 | 901 ft | 163 kts | 134° |
| 2026-05-05 22:27 | 44.45278 | -73.12522 | 1494 ft | 162 kts | 165° |
| 2026-05-05 22:28 | 44.44212 | -73.12159 | 2110 ft | 158 kts | 178° |
| 2026-05-05 22:28 | 44.43138 | -73.11907 | 2676 ft | 157 kts | 180° |
| 2026-05-05 22:28 | 44.42064 | -73.11696 | 3237 ft | 156 kts | 183° |
| 2026-05-05 22:28 | 44.40975 | -73.11494 | 3650 ft | 164 kts | 189° |
| 2026-05-05 22:29 | 44.39975 | -73.12042 | 3953 ft | 162 kts | 236° |
| 2026-05-05 22:29 | 44.39581 | -73.13595 | 4287 ft | 181 kts | 259° |
| 2026-05-05 22:29 | 44.39289 | -73.15356 | 4732 ft | 197 kts | 252° |
| 2026-05-05 22:29 | 44.38817 | -73.17264 | 5208 ft | 215 kts | 249° |
| 2026-05-05 22:30 | 44.38246 | -73.19252 | 5683 ft | 232 kts | 247° |
| 2026-05-05 22:30 | 44.37596 | -73.21356 | 6367 ft | 241 kts | 246° |
| 2026-05-05 22:30 | 44.36919 | -73.23450 | 7242 ft | 241 kts | 245° |
| 2026-05-05 22:30 | 44.36212 | -73.25582 | 8076 ft | 243 kts | 245° |
| 2026-05-05 22:31 | 44.35500 | -73.27698 | 8878 ft | 246 kts | 245° |
| 2026-05-05 22:31 | 44.34772 | -73.29826 | 9693 ft | 247 kts | 245° |
| 2026-05-05 22:31 | 44.34022 | -73.32004 | 10473 ft | 250 kts | 245° |
| 2026-05-05 22:31 | 44.33249 | -73.34240 | 10899 ft | 265 kts | 245° |
| 2026-05-05 22:32 | 44.32422 | -73.36620 | 11225 ft | 282 kts | 245° |
| 2026-05-05 22:32 | 44.31537 | -73.39165 | 11539 ft | 300 kts | 245° |
| 2026-05-05 22:32 | 44.30615 | -73.41801 | 11988 ft | 311 kts | 245° |
| 2026-05-05 22:32 | 44.29658 | -73.44542 | 12403 ft | 323 kts | 244° |
| 2026-05-05 22:33 | 44.28651 | -73.47407 | 12665 ft | 339 kts | 245° |
| 2026-05-05 22:33 | 44.27622 | -73.50335 | 13102 ft | 348 kts | 245° |
| 2026-05-05 22:33 | 44.26562 | -73.53346 | 13757 ft | 350 kts | 245° |
| 2026-05-05 22:33 | 44.25503 | -73.56356 | 14356 ft | 353 kts | 244° |
| 2026-05-05 22:34 | 44.24434 | -73.59393 | 14927 ft | 357 kts | 244° |
| 2026-05-05 22:34 | 44.23327 | -73.62532 | 15526 ft | 360 kts | 244° |
| 2026-05-05 22:34 | 44.22233 | -73.65625 | 16091 ft | 363 kts | 244° |
| 2026-05-05 22:34 | 44.21120 | -73.68765 | 16663 ft | 365 kts | 244° |
| 2026-05-05 22:35 | 44.20003 | -73.71918 | 17235 ft | 368 kts | 244° |
| 2026-05-05 22:35 | 44.18865 | -73.75131 | 17769 ft | 371 kts | 243° |
| 2026-05-05 22:35 | 44.17728 | -73.78328 | 18274 ft | 374 kts | 243° |
| 2026-05-05 22:35 | 44.16570 | -73.81582 | 18776 ft | 377 kts | 243° |
| 2026-05-05 22:36 | 44.15415 | -73.84827 | 19304 ft | 379 kts | 243° |
| 2026-05-05 22:36 | 44.14243 | -73.88114 | 19835 ft | 381 kts | 243° |
| 2026-05-05 22:36 | 44.13081 | -73.91373 | 20344 ft | 383 kts | 243° |
| 2026-05-05 22:36 | 44.11891 | -73.94701 | 20773 ft | 387 kts | 243° |
| 2026-05-05 22:37 | 44.10692 | -73.98051 | 21224 ft | 390 kts | 243° |
| 2026-05-05 22:37 | 44.09481 | -74.01427 | 21724 ft | 391 kts | 243° |
| 2026-05-05 22:37 | 44.08273 | -74.04797 | 22206 ft | 393 kts | 243° |
| 2026-05-05 22:37 | 44.07062 | -74.08171 | 22658 ft | 394 kts | 243° |
| 2026-05-05 22:38 | 44.05856 | -74.11524 | 23105 ft | 396 kts | 243° |
| 2026-05-05 22:38 | 44.04623 | -74.14945 | 23482 ft | 399 kts | 243° |
| 2026-05-05 22:38 | 44.03381 | -74.18385 | 23903 ft | 400 kts | 243° |
| 2026-05-05 22:38 | 44.02135 | -74.21838 | 24302 ft | 402 kts | 243° |
| 2026-05-05 22:39 | 44.00876 | -74.25331 | 24670 ft | 404 kts | 243° |
| 2026-05-05 22:39 | 43.99622 | -74.28789 | 25019 ft | 405 kts | 244° |
| 2026-05-05 22:39 | 43.98359 | -74.32270 | 25335 ft | 408 kts | 244° |
| 2026-05-05 22:39 | 43.97080 | -74.35802 | 25650 ft | 410 kts | 244° |
| 2026-05-05 22:40 | 43.95801 | -74.39326 | 25947 ft | 411 kts | 244° |
| 2026-05-05 22:40 | 43.94510 | -74.42870 | 26247 ft | 412 kts | 244° |
| 2026-05-05 22:40 | 43.93239 | -74.46367 | 26534 ft | 413 kts | 244° |
| 2026-05-05 22:40 | 43.91929 | -74.49957 | 26767 ft | 415 kts | 244° |
| 2026-05-05 22:41 | 43.90631 | -74.53514 | 27014 ft | 416 kts | 244° |
| 2026-05-05 22:41 | 43.89342 | -74.57046 | 27209 ft | 418 kts | 244° |
| 2026-05-05 22:41 | 43.88025 | -74.60644 | 27450 ft | 419 kts | 245° |
| 2026-05-05 22:41 | 43.86720 | -74.64200 | 27697 ft | 420 kts | 245° |
| 2026-05-05 22:42 | 43.85401 | -74.67795 | 27906 ft | 421 kts | 244° |
| 2026-05-05 22:42 | 43.84076 | -74.71403 | 28135 ft | 422 kts | 244° |
| 2026-05-05 22:42 | 43.82762 | -74.74978 | 28324 ft | 423 kts | 244° |
| 2026-05-05 22:42 | 43.81430 | -74.78583 | 28501 ft | 424 kts | 244° |
| 2026-05-05 22:43 | 43.80085 | -74.82230 | 28676 ft | 425 kts | 244° |
| 2026-05-05 22:43 | 43.78749 | -74.85848 | 28884 ft | 424 kts | 244° |
| 2026-05-05 22:43 | 43.77426 | -74.89422 | 29454 ft | 417 kts | 245° |
| 2026-05-05 22:43 | 43.76135 | -74.92902 | 30365 ft | 402 kts | 245° |
| 2026-05-05 22:44 | 43.74883 | -74.96273 | 31436 ft | 386 kts | 245° |
| 2026-05-05 22:44 | 43.73692 | -74.99470 | 32473 ft | 369 kts | 245° |
| 2026-05-05 22:44 | 43.72538 | -75.02577 | 33181 ft | 360 kts | 246° |
| 2026-05-05 22:44 | 43.71399 | -75.05645 | 33445 ft | 361 kts | 246° |
| 2026-05-05 22:45 | 43.70247 | -75.08747 | 33557 ft | 365 kts | 246° |
| 2026-05-05 22:45 | 43.69101 | -75.11832 | 33746 ft | 367 kts | 246° |
| 2026-05-05 22:45 | 43.67929 | -75.14984 | 33786 ft | 372 kts | 246° |
| 2026-05-05 22:46 | 43.65575 | -75.21288 | 33792 ft | 382 kts | 246° |
| 2026-05-05 22:46 | 43.63137 | -75.27799 | 33794 ft | 386 kts | 246° |
| 2026-05-05 22:47 | 43.60679 | -75.34338 | 33796 ft | 383 kts | 246° |
| 2026-05-05 22:47 | 43.58230 | -75.40837 | 33794 ft | 386 kts | 246° |
| 2026-05-05 22:48 | 43.55777 | -75.47344 | 33799 ft | 384 kts | 246° |
| 2026-05-05 22:48 | 43.53295 | -75.53906 | 33800 ft | 386 kts | 246° |
| 2026-05-05 22:49 | 43.50836 | -75.60397 | 33798 ft | 385 kts | 246° |
| 2026-05-05 22:49 | 43.48417 | -75.66755 | 33801 ft | 386 kts | 245° |
| 2026-05-05 22:50 | 43.45921 | -75.73317 | 33802 ft | 386 kts | 246° |
| 2026-05-05 22:50 | 43.43438 | -75.79825 | 33802 ft | 384 kts | 245° |
| 2026-05-05 22:51 | 43.40948 | -75.86327 | 33802 ft | 385 kts | 245° |
| 2026-05-05 22:51 | 43.38459 | -75.92820 | 33804 ft | 385 kts | 245° |
| 2026-05-05 22:52 | 43.35979 | -75.99276 | 33800 ft | 385 kts | 245° |
| 2026-05-05 22:52 | 43.33519 | -76.05656 | 33808 ft | 387 kts | 245° |
| 2026-05-05 22:53 | 43.31013 | -76.12143 | 33806 ft | 386 kts | 245° |
| 2026-05-05 22:53 | 43.28713 | -76.18093 | 33807 ft | 385 kts | 245° |
| 2026-05-05 22:54 | 43.26146 | -76.24702 | 33811 ft | 385 kts | 246° |
| 2026-05-05 22:54 | 43.23966 | -76.30310 | 33808 ft | 384 kts | 246° |
| 2026-05-05 22:55 | 43.21371 | -76.36980 | 33814 ft | 384 kts | 246° |
| 2026-05-05 22:55 | 43.18845 | -76.43449 | 33817 ft | 384 kts | 246° |
| 2026-05-05 22:56 | 43.16342 | -76.49854 | 33824 ft | 382 kts | 245° |
| 2026-05-05 22:56 | 43.13835 | -76.56242 | 33824 ft | 382 kts | 245° |
| 2026-05-05 22:57 | 43.11304 | -76.62673 | 33826 ft | 382 kts | 246° |
| 2026-05-05 22:57 | 43.08773 | -76.69012 | 33835 ft | 383 kts | 243° |
| 2026-05-05 22:58 | 43.06014 | -76.75246 | 33831 ft | 383 kts | 243° |
| 2026-05-05 22:58 | 43.03268 | -76.81450 | 33829 ft | 384 kts | 243° |
| 2026-05-05 22:59 | 43.00500 | -76.87691 | 33832 ft | 385 kts | 243° |
| 2026-05-05 22:59 | 42.97739 | -76.93883 | 33830 ft | 382 kts | 243° |
| 2026-05-05 23:00 | 42.93625 | -77.03086 | 33832 ft | 382 kts | 243° |
| 2026-05-05 23:00 | 42.90861 | -77.09258 | 33831 ft | 383 kts | 243° |
| 2026-05-05 23:01 | 42.88102 | -77.15406 | 33838 ft | 383 kts | 243° |
| 2026-05-05 23:01 | 42.85321 | -77.21593 | 33837 ft | 384 kts | 242° |
| 2026-05-05 23:02 | 42.82539 | -77.27760 | 33841 ft | 384 kts | 242° |
| 2026-05-05 23:02 | 42.79745 | -77.33938 | 33833 ft | 385 kts | 243° |
| 2026-05-05 23:03 | 42.76944 | -77.40116 | 33828 ft | 384 kts | 243° |
| 2026-05-05 23:03 | 42.74121 | -77.46334 | 33817 ft | 387 kts | 243° |
| 2026-05-05 23:04 | 42.71294 | -77.52552 | 33819 ft | 388 kts | 243° |
| 2026-05-05 23:04 | 42.68465 | -77.58767 | 33824 ft | 388 kts | 243° |
| 2026-05-05 23:05 | 42.65644 | -77.64940 | 33823 ft | 388 kts | 242° |
| 2026-05-05 23:05 | 42.62803 | -77.71156 | 33832 ft | 389 kts | 242° |
| 2026-05-05 23:06 | 42.59945 | -77.77380 | 33840 ft | 390 kts | 242° |
| 2026-05-05 23:06 | 42.57093 | -77.83595 | 33838 ft | 388 kts | 242° |
| 2026-05-05 23:07 | 42.54279 | -77.89700 | 33831 ft | 390 kts | 242° |
| 2026-05-05 23:07 | 42.51458 | -77.95820 | 33829 ft | 391 kts | 242° |
| 2026-05-05 23:08 | 42.48632 | -78.01934 | 33821 ft | 390 kts | 242° |
| 2026-05-05 23:08 | 42.45815 | -78.08008 | 33830 ft | 391 kts | 242° |
| 2026-05-05 23:09 | 42.42924 | -78.14231 | 33828 ft | 391 kts | 242° |
| 2026-05-05 23:09 | 42.40035 | -78.20442 | 33835 ft | 391 kts | 242° |
| 2026-05-05 23:10 | 42.37159 | -78.26615 | 33839 ft | 392 kts | 242° |
| 2026-05-05 23:10 | 42.34243 | -78.32855 | 33840 ft | 392 kts | 242° |
| 2026-05-05 23:11 | 42.31342 | -78.39048 | 33848 ft | 392 kts | 242° |
| 2026-05-05 23:11 | 42.28437 | -78.45242 | 33852 ft | 392 kts | 242° |
| 2026-05-05 23:12 | 42.25536 | -78.51406 | 33850 ft | 393 kts | 242° |
| 2026-05-05 23:12 | 42.22622 | -78.57603 | 33844 ft | 393 kts | 242° |
| 2026-05-05 23:13 | 42.19735 | -78.63713 | 33839 ft | 393 kts | 242° |
| 2026-05-05 23:13 | 42.16821 | -78.69867 | 33844 ft | 394 kts | 241° |
| 2026-05-05 23:14 | 42.14093 | -78.76199 | 33837 ft | 390 kts | 246° |
| 2026-05-05 23:14 | 42.11829 | -78.82810 | 33839 ft | 388 kts | 251° |
| 2026-05-05 23:15 | 42.10001 | -78.89608 | 33839 ft | 388 kts | 253° |
| 2026-05-05 23:15 | 42.08227 | -78.96407 | 33846 ft | 386 kts | 253° |
| 2026-05-05 23:16 | 42.06442 | -79.03226 | 33851 ft | 387 kts | 253° |
| 2026-05-05 23:16 | 42.04662 | -79.10053 | 33857 ft | 389 kts | 253° |
| 2026-05-05 23:17 | 42.02882 | -79.16863 | 33857 ft | 387 kts | 252° |
| 2026-05-05 23:17 | 42.01104 | -79.23629 | 33857 ft | 389 kts | 253° |
| 2026-05-05 23:18 | 41.99314 | -79.30419 | 33859 ft | 389 kts | 253° |
| 2026-05-05 23:18 | 41.97507 | -79.37269 | 33851 ft | 389 kts | 253° |
| 2026-05-05 23:19 | 41.95709 | -79.44062 | 33841 ft | 390 kts | 253° |
| 2026-05-05 23:19 | 41.93895 | -79.50917 | 33840 ft | 388 kts | 252° |
| 2026-05-05 23:20 | 41.92079 | -79.57725 | 33830 ft | 389 kts | 253° |
| 2026-05-05 23:20 | 41.90268 | -79.64514 | 33832 ft | 389 kts | 252° |
| 2026-05-05 23:21 | 41.88444 | -79.71326 | 33829 ft | 389 kts | 252° |
| 2026-05-05 23:21 | 41.86613 | -79.78150 | 33834 ft | 390 kts | 252° |
| 2026-05-05 23:22 | 41.84793 | -79.84915 | 33778 ft | 390 kts | 252° |
| 2026-05-05 23:22 | 41.83872 | -79.88333 | 33309 ft | 384 kts | 252° |
| 2026-05-05 23:22 | 41.82975 | -79.91663 | 32746 ft | 380 kts | 252° |
| 2026-05-05 23:23 | 41.82091 | -79.94922 | 32124 ft | 377 kts | 252° |
| 2026-05-05 23:23 | 41.81202 | -79.98203 | 31460 ft | 376 kts | 251° |
| 2026-05-05 23:23 | 41.80313 | -80.01502 | 30756 ft | 375 kts | 251° |
| 2026-05-05 23:23 | 41.79429 | -80.04759 | 30041 ft | 376 kts | 250° |
| 2026-05-05 23:24 | 41.78542 | -80.08039 | 29347 ft | 377 kts | 251° |
| 2026-05-05 23:24 | 41.77660 | -80.11320 | 28813 ft | 373 kts | 250° |
| 2026-05-05 23:24 | 41.76796 | -80.14529 | 28376 ft | 368 kts | 250° |
| 2026-05-05 23:24 | 41.75930 | -80.17722 | 27907 ft | 364 kts | 251° |
| 2026-05-05 23:25 | 41.75078 | -80.20878 | 27435 ft | 360 kts | 250° |
| 2026-05-05 23:25 | 41.74234 | -80.24004 | 26971 ft | 357 kts | 251° |
| 2026-05-05 23:25 | 41.73384 | -80.27135 | 26497 ft | 354 kts | 250° |
| 2026-05-05 23:25 | 41.72560 | -80.30179 | 26028 ft | 351 kts | 250° |
| 2026-05-05 23:26 | 41.71735 | -80.33209 | 25570 ft | 348 kts | 250° |
| 2026-05-05 23:26 | 41.70909 | -80.36253 | 25105 ft | 345 kts | 250° |
| 2026-05-05 23:26 | 41.70089 | -80.39263 | 24647 ft | 343 kts | 250° |
| 2026-05-05 23:26 | 41.69286 | -80.42215 | 24200 ft | 340 kts | 249° |
| 2026-05-05 23:27 | 41.68480 | -80.45163 | 23742 ft | 338 kts | 250° |
| 2026-05-05 23:27 | 41.67673 | -80.48108 | 23287 ft | 336 kts | 249° |
| 2026-05-05 23:27 | 41.66882 | -80.50999 | 22844 ft | 334 kts | 249° |
| 2026-05-05 23:27 | 41.66092 | -80.53892 | 22674 ft | 331 kts | 249° |
| 2026-05-05 23:28 | 41.65301 | -80.56782 | 22248 ft | 333 kts | 249° |
| 2026-05-05 23:28 | 41.64510 | -80.59663 | 21771 ft | 332 kts | 249° |
| 2026-05-05 23:28 | 41.63721 | -80.62546 | 21337 ft | 330 kts | 249° |
| 2026-05-05 23:28 | 41.62934 | -80.65417 | 20922 ft | 327 kts | 248° |
| 2026-05-05 23:29 | 41.62162 | -80.68221 | 20512 ft | 325 kts | 248° |
| 2026-05-05 23:29 | 41.61374 | -80.71065 | 20085 ft | 322 kts | 248° |
| 2026-05-05 23:29 | 41.60607 | -80.73829 | 19655 ft | 320 kts | 249° |
| 2026-05-05 23:29 | 41.59833 | -80.76620 | 19197 ft | 319 kts | 248° |
| 2026-05-05 23:30 | 41.59067 | -80.79362 | 18748 ft | 318 kts | 248° |
| 2026-05-05 23:30 | 41.58295 | -80.82136 | 18301 ft | 315 kts | 248° |
| 2026-05-05 23:30 | 41.57547 | -80.84816 | 17873 ft | 313 kts | 248° |
| 2026-05-05 23:30 | 41.56782 | -80.87552 | 17432 ft | 312 kts | 248° |
| 2026-05-05 23:31 | 41.56027 | -80.90251 | 16980 ft | 311 kts | 248° |
| 2026-05-05 23:31 | 41.55274 | -80.92934 | 16516 ft | 310 kts | 248° |
| 2026-05-05 23:31 | 41.54528 | -80.95589 | 16089 ft | 308 kts | 248° |
| 2026-05-05 23:31 | 41.53782 | -80.98247 | 15656 ft | 306 kts | 248° |
| 2026-05-05 23:32 | 41.53033 | -81.00909 | 15223 ft | 304 kts | 248° |
| 2026-05-05 23:32 | 41.52324 | -81.03510 | 14799 ft | 303 kts | 250° |
| 2026-05-05 23:32 | 41.51797 | -81.06254 | 14360 ft | 302 kts | 256° |
| 2026-05-05 23:32 | 41.51516 | -81.09006 | 13924 ft | 302 kts | 262° |
| 2026-05-05 23:33 | 41.51384 | -81.11770 | 13502 ft | 301 kts | 263° |
| 2026-05-05 23:33 | 41.51269 | -81.14556 | 13083 ft | 299 kts | 263° |
| 2026-05-05 23:33 | 41.51155 | -81.17302 | 12646 ft | 298 kts | 263° |
| 2026-05-05 23:33 | 41.51042 | -81.20020 | 12216 ft | 296 kts | 262° |
| 2026-05-05 23:34 | 41.50928 | -81.22746 | 11847 ft | 294 kts | 263° |
| 2026-05-05 23:34 | 41.50815 | -81.25458 | 11400 ft | 293 kts | 262° |
| 2026-05-05 23:34 | 41.50630 | -81.28149 | 10983 ft | 290 kts | 259° |
| 2026-05-05 23:34 | 41.50312 | -81.30780 | 10560 ft | 287 kts | 256° |
| 2026-05-05 23:35 | 41.49944 | -81.33373 | 10285 ft | 279 kts | 256° |
| 2026-05-05 23:35 | 41.49591 | -81.35850 | 10168 ft | 267 kts | 256° |
| 2026-05-05 23:35 | 41.49255 | -81.38199 | 10057 ft | 255 kts | 255° |
| 2026-05-05 23:35 | 41.48925 | -81.40496 | 9825 ft | 249 kts | 255° |
| 2026-05-05 23:36 | 41.48597 | -81.42745 | 9450 ft | 249 kts | 255° |
| 2026-05-05 23:36 | 41.48270 | -81.44981 | 9096 ft | 248 kts | 256° |
| 2026-05-05 23:36 | 41.47943 | -81.47240 | 8747 ft | 246 kts | 256° |
| 2026-05-05 23:36 | 41.47621 | -81.49458 | 8411 ft | 244 kts | 256° |
| 2026-05-05 23:37 | 41.47301 | -81.51669 | 8074 ft | 242 kts | 256° |
| 2026-05-05 23:37 | 41.46983 | -81.53851 | 7747 ft | 241 kts | 256° |
| 2026-05-05 23:37 | 41.46667 | -81.56020 | 7422 ft | 239 kts | 256° |
| 2026-05-05 23:37 | 41.46272 | -81.58136 | 7096 ft | 235 kts | 247° |
| 2026-05-05 23:38 | 41.45529 | -81.60030 | 6987 ft | 225 kts | 235° |
| 2026-05-05 23:38 | 41.44573 | -81.61646 | 6991 ft | 223 kts | 231° |
| 2026-05-05 23:38 | 41.43561 | -81.63238 | 6989 ft | 222 kts | 230° |
| 2026-05-05 23:38 | 41.42577 | -81.64777 | 6988 ft | 221 kts | 231° |
| 2026-05-05 23:39 | 41.41576 | -81.66342 | 6991 ft | 221 kts | 230° |
| 2026-05-05 23:39 | 41.40579 | -81.67906 | 6992 ft | 221 kts | 230° |
| 2026-05-05 23:39 | 41.39579 | -81.69473 | 6991 ft | 222 kts | 230° |
| 2026-05-05 23:39 | 41.38590 | -81.71020 | 6992 ft | 222 kts | 230° |
| 2026-05-05 23:40 | 41.37581 | -81.72598 | 6989 ft | 220 kts | 230° |
| 2026-05-05 23:40 | 41.36624 | -81.74093 | 6982 ft | 205 kts | 230° |
| 2026-05-05 23:40 | 41.35722 | -81.75501 | 6986 ft | 201 kts | 230° |
| 2026-05-05 23:40 | 41.34817 | -81.76919 | 6991 ft | 202 kts | 230° |
| 2026-05-05 23:41 | 41.33907 | -81.78329 | 6930 ft | 198 kts | 230° |
| 2026-05-05 23:41 | 41.33001 | -81.79714 | 6621 ft | 199 kts | 230° |
| 2026-05-05 23:41 | 41.32088 | -81.81105 | 6284 ft | 200 kts | 230° |
| 2026-05-05 23:41 | 41.31167 | -81.82507 | 5947 ft | 201 kts | 230° |
| 2026-05-05 23:42 | 41.30246 | -81.83899 | 5587 ft | 203 kts | 230° |
| 2026-05-05 23:42 | 41.29303 | -81.85319 | 5213 ft | 206 kts | 230° |
| 2026-05-05 23:42 | 41.28359 | -81.86742 | 4840 ft | 210 kts | 230° |
| 2026-05-05 23:42 | 41.27371 | -81.88217 | 4269 ft | 223 kts | 230° |
| 2026-05-05 23:43 | 41.26295 | -81.89811 | 3616 ft | 237 kts | 233° |
| 2026-05-05 23:43 | 41.25606 | -81.91687 | 3458 ft | 221 kts | 269° |
| 2026-05-05 23:43 | 41.25910 | -81.93581 | 3415 ft | 205 kts | 300° |
| 2026-05-05 23:43 | 41.26788 | -81.94991 | 3339 ft | 193 kts | 324° |
| 2026-05-05 23:44 | 41.27966 | -81.95776 | 3283 ft | 193 kts | 346° |
| 2026-05-05 23:44 | 41.29319 | -81.95900 | 3221 ft | 194 kts | 1° |
| 2026-05-05 23:44 | 41.30651 | -81.95784 | 3019 ft | 193 kts | 2° |
| 2026-05-05 23:44 | 41.31996 | -81.95662 | 2791 ft | 193 kts | 2° |
| 2026-05-05 23:45 | 41.33338 | -81.95557 | 2546 ft | 193 kts | 2° |
| 2026-05-05 23:45 | 41.34658 | -81.95287 | 2310 ft | 191 kts | 25° |
| 2026-05-05 23:45 | 41.35651 | -81.94281 | 2133 ft | 184 kts | 45° |
| 2026-05-05 23:45 | 41.36471 | -81.92983 | 1868 ft | 180 kts | 51° |
| 2026-05-05 23:46 | 41.37219 | -81.91725 | 1649 ft | 166 kts | 50° |
| 2026-05-05 23:46 | 41.37917 | -81.90613 | 1399 ft | 152 kts | 48° |
| 2026-05-05 23:46 | 41.38558 | -81.89607 | 1189 ft | 137 kts | 48° |
| 2026-05-05 23:46 | 41.39124 | -81.88714 | 1039 ft | 136 kts | 49° |
| 2026-05-05 23:47 | 41.39651 | -81.87879 | 888 ft | 135 kts | 48° |
| 2026-05-05 23:47 | 41.40233 | -81.86961 | 754 ft | 127 kts | 49° |
| 2026-05-05 23:47 | 41.40826 | -81.86025 | 773 ft | 21 kts | 54° |
| 2026-05-05 23:48 | 41.40837 | -81.85888 | 773 ft | 14 kts | 89° |
| 2026-05-05 23:48 | 41.40854 | -81.85755 | 775 ft | 13 kts | 51° |
| 2026-05-05 23:48 | 41.40911 | -81.85664 | 777 ft | 12 kts | 49° |
| 2026-05-05 23:48 | 41.40967 | -81.85577 | 778 ft | 13 kts | 49° |
| 2026-05-05 23:49 | 41.41034 | -81.85470 | 777 ft | 16 kts | 50° |
| 2026-05-05 23:49 | 41.41108 | -81.85353 | 780 ft | 16 kts | 51° |
| 2026-05-05 23:49 | 41.41182 | -81.85236 | 782 ft | 17 kts | 50° |
| 2026-05-05 23:49 | 41.41262 | -81.85107 | 782 ft | 19 kts | 51° |
| 2026-05-05 23:50 | 41.41316 | -81.84974 | 784 ft | 15 kts | 124° |
| 2026-05-05 23:50 | 41.41240 | -81.84872 | 786 ft | 16 kts | 138° |
| 2026-05-05 23:50 | 41.41155 | -81.84777 | 788 ft | 16 kts | 142° |
| 2026-05-05 23:50 | 41.41090 | -81.84679 | 790 ft | 9 kts | 78° |
| 2026-05-05 23:51 | 41.41141 | -81.84600 | 790 ft | 12 kts | 46° |
| 2026-05-05 23:51 | 41.41204 | -81.84502 | 790 ft | 15 kts | 50° |
| 2026-05-05 23:51 | 41.41263 | -81.84386 | 790 ft | 13 kts | 89° |
| 2026-05-05 23:51 | 41.41216 | -81.84306 | 791 ft | 11 kts | 141° |
| 2026-05-05 23:52 | 41.41185 | -81.84249 | 792 ft | 5 kts | 121° |
| 2026-05-05 23:52 | 41.41178 | -81.84232 | 792 ft | 0 kts | 121° |